Hub


Voltar

 INFORMAÇÕES METEOROLÓGICAS

METAR FOR SBST


ADDS - METARS form results

(1631 UTC 17 October 2019)
Data provider http://aviationweather.gov/metar/data/
 
METAR text: SBST 171600Z 12007KT 060V160 9999 FEW025 SCT033 27/22 Q1016
Conditions at: SBST (SANTOS (BRAZ-AFB, BR) observed 1600 UTC 17 October 2019
Temperature: 27.0°C (81°F)
Dewpoint: 22.0°C (72°F) [RH = 74%]
Pressure (altimeter): 30.00 inches Hg (1016.0 mb)
Winds: from the ESE (120 degrees) at 8 MPH (7 knots; 3.6 m/s)
Visibility: 6 or more miles (10+ km)
Ceiling: at least 12,000 feet AGL
Clouds: few clouds at 2500 feet AGL
scattered clouds at 3300 feet AGL
Weather: no significant weather observed at this time


 MAPA DO AEROPORTO


 INFORMAÇÕES DA PISTA

Pista 17 Tamanho da pista 4560 ft Largura da pista 148 ft
Elevação da pista 0 ft Ranhura da pista 0 ft Proa da pista 0
Pista 35 Tamanho da pista 4560 ft Largura da pista 148 ft
Elevação da pista 0 ft Ranhura da pista 0 ft Proa da pista 0

 FREQUÊNCIAS DO AEROPORTO

Tipo APP Nome SAO PAULO Frequência 119.8 MHZ
Tipo TWR Nome TWR Frequência 118.3 MHZ

 AUXÍLIOS DE NAVEGAÇÃO PRÓXIMOS AO AEROPORTO

Tipo NDB Nome Vicente Frequência 360 KHZ
Tipo NDB Nome Santos Frequência 375 KHZ